DMAD Reservoir




Date Reservoir Capacity (AF) Hourly Avg. Stream Stage (ft) Reservoir Outflow (cfs) Reservoir Gate 1 Height (ft) Reservoir Gate 2 Height (ft) Reservoir Gate 3 Height (ft) Stream Flow (cfs) Stream Conductivity (ppm) Battery Voltage (V) Reservoir Height (ft) Canal Flow (cfs) Canal Height (ft) Canal Flow 2 (ft)
01/01/2019 3,219 0 0.00 0.00 0.00 0.00 0.00 13.19 57.45 0.00 0.00
01/02/2019 3,183 0 0.00 0.00 0.00 0.00 0.00 13.37 57.39 0.00 0.00
01/03/2019 3,219 0 0.00 0.00 0.00 0.00 0.00 13.41 57.45 0.00 0.00
01/04/2019 3,219 0 0.00 0.00 0.00 0.00 0.00 13.40 57.45 0.00 0.00
01/05/2019 3,189 0 0.00 0.00 0.00 0.00 0.00 13.36 57.40 0.00 0.00
01/06/2019 3,201 0 0.00 0.00 0.00 0.00 0.00 13.27 57.42 0.00 0.00
01/07/2019 3,225 0 0.00 0.00 0.00 0.00 0.00 13.37 57.46 0.00 0.00
01/08/2019 3,225 0 0.00 0.00 0.00 0.00 0.00 13.41 57.46 0.00 0.00
01/09/2019 3,225 0 0.00 0.00 0.00 0.00 0.00 13.38 57.46 0.00 0.00
01/10/2019 3,225 0 0.00 0.00 0.00 0.00 0.00 13.38 57.46 0.00 0.00
01/11/2019 3,219 0 0.00 0.00 0.00 0.00 0.00 13.38 57.45 0.00 0.00
01/12/2019 3,986 0 0.00 0.00 0.00 0.00 0.00 12.85 58.59 0.00 0.00
01/13/2019 4,269 0 0.00 0.00 0.00 0.00 0.00 13.15 58.97 0.00 0.00
01/14/2019 4,187 0 0.00 0.00 0.00 0.00 0.00 13.27 58.86 0.00 0.00
01/15/2019 4,350 0 0.00 0.00 0.00 0.00 0.00 13.16 59.08 0.00 0.00
01/16/2019 4,432 0 0.00 0.00 0.00 0.00 0.00 13.36 59.19 0.00 0.00
01/17/2019 4,180 0 0.00 0.00 0.00 0.00 0.00 13.06 58.85 0.00 0.00
01/18/2019 4,276 0 0.00 0.00 0.00 0.00 0.00 13.43 58.98 0.00 0.00
01/19/2019 4,336 0 0.00 0.00 0.00 0.00 0.00 13.45 59.06 0.00 0.00
01/20/2019 4,410 0 0.00 0.00 0.00 0.00 0.00 13.36 59.16 0.00 0.00
01/21/2019 3,711 0 0.00 0.00 0.00 0.00 0.00 12.66 58.22 0.00 0.00
01/22/2019 3,422 0 0.00 0.00 0.00 0.00 0.00 13.23 57.79 0.00 0.00
01/23/2019 3,375 0 0.00 0.00 0.00 0.00 0.00 13.49 57.71 0.00 0.00
01/24/2019 3,422 0 0.00 0.00 0.00 0.00 0.00 13.49 57.79 0.00 0.00
01/25/2019 3,500 0 0.00 0.00 0.00 0.00 0.00 13.48 57.92 0.00 0.00
01/26/2019 8,325 0 0.00 0.00 0.00 0.00 0.00 13.47 63.57 0.00 0.00
01/27/2019 0 0.00 0.00 0.00 0.00 0.00 13.48 69.26 0.00 0.00
01/28/2019 0 0.00 0.00 0.00 0.00 0.00 13.49 68.26 0.00 0.00
01/29/2019 9,063 0 0.00 0.00 0.00 0.00 0.00 13.43 64.28 0.00 0.00
01/30/2019 10,766 0 0.00 0.00 0.00 0.00 0.00 13.47 65.80 0.00 0.00
01/31/2019 0 0.00 0.00 0.00 0.00 0.00 13.47 67.67 0.00 0.00
Average 0 0.00 0.00
Maximum 0 0.00 0.00
Minimum 0 0.00 0.00
Total Volume (AF) 0 0.00 0.00